Time;durP1;ratioP1;P1;durP2;ratioP2;P2;SDS_P1;SDS_P2;PMS_P1;PMS_P2;Temp;Humidity;BMP_temperature;BMP_pressure;BME280_temperature;BME280_humidity;BME280_pressure;Samples;Min_cycle;Max_cycle;Signal;HPM_P1;HPM_P2
2022/06/19 00:00:34;;;;;;;16.73;7.50;;;22.70;95.50;;;;;;5019736;28;20426;-90
2022/06/19 00:03:24;;;;;;;13.43;7.00;;;22.80;95.50;;;;;;5019526;28;20439;-89
2022/06/19 00:05:57;;;;;;;13.43;6.60;;;22.80;95.50;;;;;;5010153;28;20427;-89
2022/06/19 00:08:34;;;;;;;15.63;8.33;;;22.80;95.50;;;;;;5019621;28;20462;-89
2022/06/19 00:11:06;;;;;;;9.80;6.20;;;22.70;95.50;;;;;;5020124;28;20802;-89
2022/06/19 00:13:34;;;;;;;13.63;7.03;;;22.70;95.50;;;;;;5037093;28;20427;-89
2022/06/19 00:16:07;;;;;;;12.70;6.60;;;22.70;95.70;;;;;;5019594;28;20426;-90
2022/06/19 00:18:38;;;;;;;14.03;7.33;;;22.70;95.80;;;;;;5004215;28;20443;-89
2022/06/19 00:21:05;;;;;;;15.30;7.40;;;22.60;95.70;;;;;;5015093;28;20419;-90
2022/06/19 00:23:39;;;;;;;13.83;7.07;;;22.60;95.70;;;;;;5019014;28;20447;-89
2022/06/19 00:26:14;;;;;;;18.10;6.10;;;22.60;95.70;;;;;;5018807;28;20507;-87
2022/06/19 00:28:47;;;;;;;15.33;6.90;;;22.60;95.60;;;;;;5025888;28;20996;-89
2022/06/19 00:31:16;;;;;;;12.43;5.93;;;22.60;95.60;;;;;;5019425;28;20446;-90
2022/06/19 00:33:44;;;;;;;14.23;7.07;;;22.50;95.50;;;;;;5018550;28;20461;-89
2022/06/19 00:36:13;;;;;;;16.37;6.07;;;22.50;95.40;;;;;;5019419;28;20510;-89
2022/06/19 00:38:38;;;;;;;16.97;6.50;;;22.50;95.50;;;;;;5018923;28;20490;-89
2022/06/19 00:41:06;;;;;;;22.10;6.53;;;22.50;95.50;;;;;;5019147;28;20529;-90
2022/06/19 00:44:08;;;;;;;18.60;5.90;;;22.40;95.40;;;;;;5019289;28;20295;-90
2022/06/19 00:47:08;;;;;;;13.23;5.70;;;22.50;95.50;;;;;;5018521;28;20926;-90
2022/06/19 00:50:03;;;;;;;16.50;6.43;;;22.50;95.60;;;;;;5009116;28;20578;-89
2022/06/19 00:52:45;;;;;;;15.20;5.90;;;22.50;95.50;;;;;;5018770;28;20479;-90
2022/06/19 00:55:38;;;;;;;12.90;5.87;;;22.40;95.50;;;;;;5018445;28;20510;-90
2022/06/19 00:58:27;;;;;;;11.43;5.23;;;22.40;95.60;;;;;;5006239;28;20419;-90
2022/06/19 01:01:08;;;;;;;12.20;5.67;;;22.30;95.70;;;;;;5018514;28;20423;-89
2022/06/19 01:04:16;;;;;;;16.47;5.57;;;22.30;95.90;;;;;;5018282;28;20811;-90
2022/06/19 01:07:06;;;;;;;14.83;5.77;;;22.20;96.10;;;;;;4971435;28;20481;-89
2022/06/19 01:09:37;;;;;;;14.70;5.70;;;22.10;96.10;;;;;;4958964;28;20438;-90
2022/06/19 01:12:08;;;;;;;10.60;5.87;;;22.10;96.30;;;;;;4958660;28;20477;-89
2022/06/19 01:14:38;;;;;;;16.97;5.90;;;22.10;96.30;;;;;;4969728;28;20435;-88
2022/06/19 01:17:08;;;;;;;16.13;6.10;;;22.10;96.20;;;;;;5008969;28;20993;-89
2022/06/19 01:19:39;;;;;;;18.73;4.60;;;22.10;96.20;;;;;;5032837;28;20427;-90
2022/06/19 01:22:34;;;;;;;11.00;5.03;;;22.10;96.20;;;;;;5018429;28;20976;-89
2022/06/19 01:25:48;;;;;;;8.30;5.17;;;22.10;96.20;;;;;;5017839;28;20427;-89
2022/06/19 01:31:26;;;;;;;12.93;5.13;;;22.10;96.00;;;;;;5036117;28;20414;-89
2022/06/19 01:34:48;;;;;;;11.97;4.90;;;22.10;96.00;;;;;;5017984;28;20485;-89
2022/06/19 01:36:46;;;;;;;14.73;5.53;;;22.10;96.00;;;;;;5012562;28;20416;-89
2022/06/19 01:39:14;;;;;;;15.37;5.40;;;22.10;96.10;;;;;;5017910;28;20791;-90
2022/06/19 01:41:48;;;;;;;14.63;5.33;;;22.00;96.30;;;;;;5017368;28;20204;-88
2022/06/19 01:44:16;;;;;;;12.23;5.73;;;22.00;96.40;;;;;;5017055;28;20422;-90
2022/06/19 01:46:45;;;;;;;11.93;4.90;;;21.90;96.60;;;;;;5017378;28;20421;-90
2022/06/19 01:52:36;;;;;;;18.60;6.30;;;21.60;97.00;;;;;;5021580;28;20520;-89
2022/06/19 01:55:04;;;;;;;16.27;5.93;;;21.50;96.90;;;;;;5017627;28;20806;-90
2022/06/19 01:58:04;;;;;;;16.57;5.50;;;21.50;96.90;;;;;;5017455;28;20802;-89
2022/06/19 02:00:39;;;;;;;14.77;4.87;;;21.40;96.70;;;;;;5033242;28;20450;-91
2022/06/19 02:03:24;;;;;;;17.10;6.33;;;21.40;96.80;;;;;;5017505;28;20942;-90
2022/06/19 02:05:58;;;;;;;12.33;4.90;;;21.40;96.50;;;;;;5034830;28;20946;-90
2022/06/19 02:08:28;;;;;;;16.10;6.17;;;21.50;96.50;;;;;;5017536;28;20988;-89
2022/06/19 02:10:57;;;;;;;12.90;5.40;;;21.50;96.20;;;;;;5017570;28;20433;-89
2022/06/19 02:13:26;;;;;;;14.80;4.97;;;21.50;96.10;;;;;;5034477;28;21117;-89
2022/06/19 02:15:53;;;;;;;10.53;4.47;;;21.50;96.30;;;;;;5017068;28;20494;-91
2022/06/19 02:18:36;;;;;;;10.60;4.63;;;21.50;96.30;;;;;;5034910;28;20492;-89
2022/06/19 02:21:06;;;;;;;11.13;5.00;;;21.40;96.20;;;;;;5017155;28;20437;-89
2022/06/19 02:23:37;;;;;;;13.37;5.30;;;21.40;96.10;;;;;;5017184;28;20435;-90
2022/06/19 02:26:09;;;;;;;13.63;5.83;;;21.40;96.00;;;;;;5017276;28;20470;-91
2022/06/19 02:28:38;;;;;;;11.63;4.80;;;21.30;96.10;;;;;;5017634;28;20465;-88
2022/06/19 02:31:06;;;;;;;12.97;6.10;;;21.30;95.90;;;;;;5034455;28;20427;-90
2022/06/19 02:33:38;;;;;;;15.33;7.10;;;21.40;96.00;;;;;;5016986;28;20434;-91
2022/06/19 02:36:39;;;;;;;17.80;5.03;;;21.40;95.80;;;;;;5016412;28;20476;-89
2022/06/19 02:39:37;;;;;;;10.53;4.23;;;21.40;95.80;;;;;;5016798;28;20483;-89
2022/06/19 02:42:30;;;;;;;21.53;6.00;;;21.30;95.80;;;;;;5015376;28;20447;-90
2022/06/19 02:45:10;;;;;;;9.20;4.70;;;21.30;96.00;;;;;;5017127;28;25084;-90
2022/06/19 02:47:49;;;;;;;15.10;5.40;;;21.30;96.20;;;;;;5014070;28;20499;-89
2022/06/19 02:50:27;;;;;;;14.27;5.00;;;21.30;96.30;;;;;;5016525;28;20875;-89
2022/06/19 02:52:57;;;;;;;16.33;4.67;;;21.20;96.40;;;;;;5016420;28;20510;-89
2022/06/19 02:55:27;;;;;;;12.80;5.60;;;21.20;96.30;;;;;;5017083;28;20454;-88
2022/06/19 02:57:57;;;;;;;10.90;5.20;;;21.20;96.30;;;;;;5020900;28;20427;-89
2022/06/19 03:00:27;;;;;;;19.97;5.77;;;21.20;96.30;;;;;;5020401;28;20427;-89
2022/06/19 03:03:07;;;;;;;13.87;4.90;;;21.20;96.00;;;;;;5019736;28;20573;-89
2022/06/19 03:05:35;;;;;;;16.43;4.50;;;21.20;95.60;;;;;;5000812;28;20930;-89
2022/06/19 03:08:08;;;;;;;16.87;4.73;;;21.20;94.80;;;;;;5015326;28;20451;-89
2022/06/19 03:10:37;;;;;;;13.70;4.60;;;21.20;94.60;;;;;;5011230;28;20453;-89
2022/06/19 03:13:06;;;;;;;16.40;4.43;;;21.20;94.00;;;;;;5015692;28;21525;-89
2022/06/19 03:15:46;;;;;;;10.70;4.40;;;21.30;93.60;;;;;;5010794;28;20444;-88
2022/06/19 03:18:17;;;;;;;12.30;4.73;;;21.30;93.30;;;;;;5005359;28;20906;-89
2022/06/19 03:20:49;;;;;;;16.47;5.83;;;21.30;93.00;;;;;;5020311;28;20423;-88
2022/06/19 03:23:17;;;;;;;11.10;4.20;;;21.30;92.90;;;;;;5037183;28;20459;-88
2022/06/19 03:25:46;;;;;;;13.37;4.83;;;21.40;92.20;;;;;;5013665;28;20485;-88
2022/06/19 03:28:15;;;;;;;15.30;5.27;;;21.50;92.40;;;;;;5008064;28;20473;-88
2022/06/19 03:33:57;;;;;;;15.17;5.40;;;21.60;91.80;;;;;;5012581;28;20432;-91
2022/06/19 03:36:26;;;;;;;10.77;4.20;;;21.70;91.40;;;;;;5019988;28;20414;-88
2022/06/19 03:38:59;;;;;;;10.97;5.00;;;21.70;91.20;;;;;;5019547;28;20415;-89
2022/06/19 03:41:27;;;;;;;16.67;5.00;;;21.80;91.50;;;;;;5020474;28;20430;-89
2022/06/19 03:43:58;;;;;;;12.23;4.90;;;21.80;91.40;;;;;;5019798;28;20438;-90
2022/06/19 03:47:07;;;;;;;20.07;4.83;;;21.90;91.30;;;;;;5019672;28;20415;-89
2022/06/19 03:49:35;;;;;;;10.40;4.70;;;21.90;91.20;;;;;;5026120;28;20473;-90
2022/06/19 03:52:08;;;;;;;15.00;4.80;;;22.00;91.20;;;;;;5020078;28;20830;-89
2022/06/19 03:54:37;;;;;;;12.93;5.70;;;22.00;91.10;;;;;;5020130;28;20415;-87
2022/06/19 03:57:05;;;;;;;11.77;4.33;;;22.00;90.60;;;;;;5037553;28;20510;-89
2022/06/19 03:59:38;;;;;;;15.70;4.73;;;22.10;90.90;;;;;;5020006;28;20422;-89
2022/06/19 04:02:09;;;;;;;8.57;4.50;;;22.10;90.90;;;;;;5019829;28;20475;-89
2022/06/19 04:04:39;;;;;;;9.70;3.83;;;22.20;90.90;;;;;;5019871;28;20422;-90
2022/06/19 04:07:06;;;;;;;12.00;4.30;;;22.20;90.80;;;;;;5010034;28;20934;-88
2022/06/19 04:09:35;;;;;;;6.70;4.70;;;22.20;90.60;;;;;;5019187;28;20426;-91
2022/06/19 04:12:09;;;;;;;12.20;4.27;;;22.20;90.80;;;;;;5012087;28;21354;-88
2022/06/19 04:14:35;;;;;;;9.17;4.23;;;22.30;90.60;;;;;;5015710;28;20907;-89
2022/06/19 04:17:08;;;;;;;17.93;5.57;;;22.30;90.50;;;;;;5029859;28;20485;-89
2022/06/19 04:19:37;;;;;;;8.20;3.90;;;22.40;90.30;;;;;;5007028;28;20181;-89
2022/06/19 04:22:03;;;;;;;9.70;4.50;;;22.40;90.30;;;;;;5018870;28;20443;-89
2022/06/19 04:24:29;;;;;;;11.40;4.40;;;22.40;90.40;;;;;;5015713;28;20486;-90
2022/06/19 04:27:14;;;;;;;11.43;4.53;;;22.50;90.60;;;;;;4999862;28;20412;-89
2022/06/19 04:29:47;;;;;;;10.17;3.73;;;22.50;90.60;;;;;;5019299;28;20184;-88
2022/06/19 04:32:15;;;;;;;9.93;4.10;;;22.50;90.60;;;;;;5017880;28;20467;-89
2022/06/19 04:34:46;;;;;;;10.67;4.77;;;22.60;90.90;;;;;;5024290;28;20930;-89
2022/06/19 04:37:15;;;;;;;12.00;4.57;;;22.60;91.00;;;;;;5018775;28;20454;-89
2022/06/19 04:40:28;;;;;;;11.20;4.93;;;22.60;90.80;;;;;;5018512;28;20506;-89
2022/06/19 04:42:56;;;;;;;11.30;4.60;;;22.70;90.80;;;;;;5007589;28;20454;-89
2022/06/19 04:45:47;;;;;;;7.90;4.40;;;22.70;90.60;;;;;;5017551;28;20964;-85
2022/06/19 04:48:25;;;;;;;5.80;4.17;;;22.70;90.70;;;;;;5017211;28;20459;-90
2022/06/19 04:50:56;;;;;;;13.80;4.70;;;22.80;90.70;;;;;;5017775;28;20471;-88
2022/06/19 04:53:39;;;;;;;;;;;;;;;;;;;;;
2022/06/19 04:56:18;;;;;;;14.30;4.10;;;22.90;90.70;;;;;;5036226;28;20418;-88
2022/06/19 04:58:46;;;;;;;10.33;4.70;;;22.90;90.60;;;;;;5018589;28;20476;-89
2022/06/19 05:01:39;;;;;;;11.00;4.73;;;23.00;91.10;;;;;;5018316;28;20439;-89
2022/06/19 05:04:17;;;;;;;12.30;4.10;;;23.00;90.80;;;;;;5005720;28;20465;-89
2022/06/19 05:06:48;;;;;;;11.07;4.57;;;23.10;90.90;;;;;;5017209;28;20431;-89
2022/06/19 05:09:18;;;;;;;8.50;3.77;;;23.10;90.70;;;;;;5026685;28;20498;-89
2022/06/19 05:11:46;;;;;;;11.00;4.50;;;23.20;90.50;;;;;;5016842;28;20498;-88
2022/06/19 05:14:17;;;;;;;7.10;4.40;;;23.20;89.50;;;;;;5018049;28;20426;-90
2022/06/19 05:16:45;;;;;;;9.07;3.77;;;23.30;89.70;;;;;;5018301;28;20433;-89
2022/06/19 05:19:16;;;;;;;5.50;4.03;;;23.40;89.50;;;;;;5017796;28;20427;-90
2022/06/19 05:21:47;;;;;;;11.53;3.70;;;23.50;89.00;;;;;;5005240;28;20450;-93
2022/06/19 05:24:18;;;;;;;4.47;3.30;;;23.60;88.90;;;;;;5018129;28;20430;-88
2022/06/19 05:26:47;;;;;;;10.30;4.93;;;23.70;88.70;;;;;;5016274;28;20415;-87
2022/06/19 05:29:24;;;;;;;13.27;4.23;;;23.70;88.80;;;;;;5017085;28;20482;-89
2022/06/19 05:32:06;;;;;;;15.07;3.80;;;23.80;88.70;;;;;;5026858;28;20419;-89
2022/06/19 05:35:02;;;;;;;;;;;;;;;;;;;;;
2022/06/19 05:37:28;;;;;;;8.47;4.00;;;23.90;88.30;;;;;;5028382;28;20418;-89
2022/06/19 05:40:07;;;;;;;8.13;3.57;;;24.00;88.30;;;;;;5017583;28;20455;-87
2022/06/19 05:42:38;;;;;;;8.50;3.67;;;24.10;88.00;;;;;;5017174;28;20203;-89
2022/06/19 05:45:07;;;;;;;8.70;4.00;;;24.20;87.60;;;;;;5017715;28;20426;-89
2022/06/19 05:47:37;;;;;;;8.60;4.30;;;24.20;88.10;;;;;;5017654;28;20455;-90
2022/06/19 05:50:07;;;;;;;8.30;3.80;;;24.30;87.80;;;;;;5017602;28;20473;-88
2022/06/19 05:52:33;;;;;;;11.03;4.43;;;24.40;88.00;;;;;;5033484;23;20532;-87
2022/06/19 05:54:58;;;;;;;7.33;3.70;;;24.50;87.60;;;;;;5050362;28;20415;-88
2022/06/19 05:57:27;;;;;;;12.77;4.80;;;24.60;87.50;;;;;;5053238;28;20202;-86
2022/06/19 05:59:54;;;;;;;9.57;4.73;;;24.60;87.40;;;;;;5053470;28;20190;-87
2022/06/19 06:02:22;;;;;;;15.10;4.20;;;24.70;87.60;;;;;;5053895;28;20429;-87
2022/06/19 06:04:48;;;;;;;9.10;3.93;;;24.80;87.50;;;;;;5053962;28;20449;-88
2022/06/19 06:07:14;;;;;;;12.10;3.80;;;24.90;87.00;;;;;;5053218;28;20502;-87
2022/06/19 06:09:40;;;;;;;11.57;4.30;;;24.90;86.70;;;;;;5070979;28;20509;-89
2022/06/19 06:12:07;;;;;;;9.77;3.73;;;25.00;86.70;;;;;;5053209;28;20181;-87
2022/06/19 06:14:33;;;;;;;8.37;3.70;;;25.10;86.30;;;;;;5053754;28;20702;-88
2022/06/19 06:16:59;;;;;;;5.20;3.63;;;25.20;86.50;;;;;;5052752;28;20653;-89
2022/06/19 06:19:27;;;;;;;6.30;3.80;;;25.30;85.70;;;;;;5052911;28;20927;-88
2022/06/19 06:21:53;;;;;;;7.87;4.23;;;25.40;85.20;;;;;;5052632;28;20175;-89
2022/06/19 06:24:19;;;;;;;12.40;4.30;;;25.40;84.70;;;;;;5053040;28;20440;-88
2022/06/19 06:26:46;;;;;;;10.53;4.30;;;25.50;84.40;;;;;;5053592;28;20214;-88
2022/06/19 06:29:13;;;;;;;9.27;4.00;;;25.60;84.20;;;;;;5053647;28;20278;-89
2022/06/19 06:31:39;;;;;;;11.53;4.10;;;25.60;84.70;;;;;;5059744;28;20702;-88
2022/06/19 06:34:06;;;;;;;11.43;3.87;;;25.70;84.20;;;;;;5059990;28;20493;-89
2022/06/19 06:36:32;;;;;;;8.27;3.97;;;25.80;84.00;;;;;;5059636;28;20187;-90
2022/06/19 06:38:58;;;;;;;12.10;5.30;;;25.80;84.60;;;;;;5060322;28;20417;-89
2022/06/19 06:41:24;;;;;;;6.90;3.60;;;25.90;83.70;;;;;;5059757;28;20178;-88
2022/06/19 06:43:50;;;;;;;7.70;4.03;;;26.00;83.10;;;;;;5059774;28;20437;-88
2022/06/19 06:46:18;;;;;;;13.63;4.47;;;26.10;83.20;;;;;;5059747;28;20881;-87
2022/06/19 06:48:45;;;;;;;10.87;3.87;;;26.20;83.10;;;;;;5059271;28;20190;-88
2022/06/19 06:51:15;;;;;;;8.10;4.00;;;26.30;83.40;;;;;;5059751;28;20433;-88
2022/06/19 06:53:41;;;;;;;11.73;4.07;;;26.40;83.10;;;;;;5059975;28;20496;-89
2022/06/19 06:56:08;;;;;;;5.60;3.77;;;26.50;83.70;;;;;;5059863;28;20809;-88
2022/06/19 06:58:34;;;;;;;9.53;4.43;;;26.60;82.80;;;;;;5055130;28;20179;-89
2022/06/19 07:01:09;;;;;;;11.93;4.20;;;26.70;81.90;;;;;;5077787;28;20583;-89
2022/06/19 07:03:35;;;;;;;7.83;3.83;;;26.80;81.80;;;;;;5059675;28;20857;-88
2022/06/19 07:06:01;;;;;;;7.80;3.53;;;26.90;82.80;;;;;;5059369;28;20448;-90
2022/06/19 07:08:26;;;;;;;6.07;3.70;;;26.90;82.70;;;;;;5059619;28;20899;-90
2022/06/19 07:10:52;;;;;;;7.07;3.73;;;27.00;81.20;;;;;;5059211;28;20447;-88
2022/06/19 07:13:18;;;;;;;6.87;4.27;;;27.20;81.40;;;;;;5059560;28;20202;-89
2022/06/19 07:15:44;;;;;;;10.10;4.97;;;27.30;81.80;;;;;;5048018;28;20179;-90
2022/06/19 07:18:11;;;;;;;9.17;4.43;;;27.40;81.30;;;;;;5039316;28;20982;-89
2022/06/19 07:20:36;;;;;;;7.03;3.40;;;27.60;80.00;;;;;;5039336;28;20183;-90
2022/06/19 07:23:04;;;;;;;10.63;3.60;;;27.70;79.90;;;;;;5039445;28;20540;-93
2022/06/19 07:25:30;;;;;;;12.87;4.23;;;27.90;78.30;;;;;;5052238;28;20244;-89
2022/06/19 07:27:59;;;;;;;7.50;3.60;;;28.10;77.60;;;;;;5059603;28;20463;-87
2022/06/19 07:30:26;;;;;;;10.33;4.63;;;28.30;77.60;;;;;;5055557;28;20508;-89
2022/06/19 07:32:52;;;;;;;12.40;3.77;;;28.50;75.50;;;;;;5047334;28;20452;-89
2022/06/19 07:35:18;;;;;;;17.17;4.43;;;28.60;75.50;;;;;;5060342;28;20460;-89
2022/06/19 07:37:44;;;;;;;11.80;3.80;;;28.80;75.20;;;;;;5055467;28;20442;-89
2022/06/19 07:40:13;;;;;;;14.10;3.33;;;28.90;75.20;;;;;;5039870;28;20789;-90
2022/06/19 07:42:39;;;;;;;12.47;4.40;;;29.00;74.00;;;;;;5057261;28;20524;-90
2022/06/19 07:45:05;;;;;;;11.43;3.77;;;29.20;73.40;;;;;;5057097;28;20857;-90
2022/06/19 07:50:17;;;;;;;13.00;4.03;;;29.40;72.90;;;;;;5074154;28;20229;-88
2022/06/19 07:52:46;;;;;;;9.70;3.40;;;29.50;72.70;;;;;;5055875;28;20472;-89
2022/06/19 07:55:21;;;;;;;8.63;3.90;;;29.60;72.40;;;;;;5073680;28;20418;-86
2022/06/19 07:57:47;;;;;;;6.13;3.40;;;29.80;72.50;;;;;;5055944;28;20472;-87
2022/06/19 08:00:20;;;;;;;18.50;4.93;;;29.90;72.10;;;;;;5037066;28;20466;-90
2022/06/19 08:02:48;;;;;;;10.60;4.07;;;30.00;71.80;;;;;;5048791;28;20183;-89
2022/06/19 08:05:15;;;;;;;9.60;4.80;;;30.20;71.00;;;;;;5073163;28;20495;-87
2022/06/19 08:07:41;;;;;;;19.93;4.20;;;30.30;71.30;;;;;;5055752;28;20457;-88
2022/06/19 08:10:13;;;;;;;21.10;5.10;;;30.40;71.20;;;;;;5050923;28;20425;-88
2022/06/19 08:12:39;;;;;;;12.70;3.73;;;30.50;70.80;;;;;;5037933;28;21062;-88
2022/06/19 08:15:05;;;;;;;13.80;3.83;;;30.60;70.20;;;;;;5037134;28;20494;-89
2022/06/19 08:17:31;;;;;;;12.37;3.93;;;30.70;70.90;;;;;;5037811;28;20676;-90
2022/06/19 08:19:56;;;;;;;8.43;3.63;;;30.80;69.70;;;;;;5040325;28;20418;-88
2022/06/19 08:22:23;;;;;;;8.73;3.80;;;30.90;69.20;;;;;;5057949;28;20203;-87
2022/06/19 08:24:49;;;;;;;18.50;4.70;;;31.00;70.00;;;;;;5058120;28;20713;-88
2022/06/19 08:27:14;;;;;;;16.00;3.93;;;31.10;69.40;;;;;;5075497;28;20433;-89
2022/06/19 08:29:40;;;;;;;15.53;4.10;;;31.20;70.10;;;;;;5057541;28;20251;-89
2022/06/19 08:32:06;;;;;;;11.30;3.77;;;31.30;68.70;;;;;;5056880;28;20221;-85
2022/06/19 08:34:32;;;;;;;8.67;4.07;;;31.40;69.00;;;;;;5056874;28;20344;-91
2022/06/19 08:37:01;;;;;;;12.97;3.63;;;31.50;68.60;;;;;;5057118;28;20437;-87
2022/06/19 08:39:29;;;;;;;10.30;4.00;;;31.60;68.30;;;;;;5057846;28;20271;-89
2022/06/19 08:42:07;;;;;;;9.40;3.90;;;31.70;68.80;;;;;;5057166;28;20425;-86
2022/06/19 08:45:03;;;;;;;8.53;3.80;;;31.90;67.60;;;;;;5057338;28;20424;-89
2022/06/19 08:48:04;;;;;;;15.40;3.93;;;32.10;66.60;;;;;;5075127;28;20480;-90
2022/06/19 08:50:35;;;;;;;18.83;3.70;;;32.20;66.60;;;;;;4973884;28;20798;-87
2022/06/19 08:53:14;;;;;;;14.70;4.70;;;32.40;65.70;;;;;;5037605;28;20449;-87
2022/06/19 08:56:05;;;;;;;21.43;4.40;;;32.50;65.80;;;;;;5074601;28;20481;-88
2022/06/19 08:58:43;;;;;;;10.10;3.67;;;32.60;65.20;;;;;;5057138;28;20436;-89
2022/06/19 09:01:29;;;;;;;17.60;4.47;;;32.80;65.20;;;;;;5052943;28;20449;-88
2022/06/19 09:07:47;;;;;;;16.00;3.77;;;33.00;64.70;;;;;;4992540;28;20548;-90
2022/06/19 09:10:49;;;;;;;13.07;3.37;;;33.10;65.30;;;;;;5043944;28;20410;-87
2022/06/19 09:13:53;;;;;;;13.20;3.67;;;33.30;63.50;;;;;;5057157;28;20445;-89
2022/06/19 09:16:39;;;;;;;14.97;3.53;;;33.40;63.90;;;;;;5056399;28;20476;-91
2022/06/19 09:19:28;;;;;;;9.60;3.80;;;33.50;62.80;;;;;;5055059;28;20421;-90
2022/06/19 09:21:59;;;;;;;25.50;4.57;;;33.50;63.50;;;;;;5045793;28;21030;-91
2022/06/19 09:24:52;;;;;;;17.43;4.00;;;33.60;63.20;;;;;;5041601;28;20860;-87
2022/06/19 09:27:20;;;;;;;14.30;4.20;;;33.70;62.10;;;;;;5041858;28;20821;-89
2022/06/19 09:30:01;;;;;;;12.63;3.90;;;33.80;61.60;;;;;;5056593;28;21078;-88
2022/06/19 09:32:41;;;;;;;14.53;4.30;;;34.00;61.60;;;;;;5055737;28;20428;-91
2022/06/19 09:35:22;;;;;;;15.37;4.67;;;34.10;61.80;;;;;;5054600;28;20421;-88
2022/06/19 09:37:58;;;;;;;22.67;5.77;;;34.10;61.70;;;;;;5052631;28;20448;-87
2022/06/19 09:40:28;;;;;;;16.57;3.93;;;34.20;62.00;;;;;;5043559;28;20610;-88
2022/06/19 09:43:00;;;;;;;12.50;3.37;;;34.30;61.40;;;;;;5054188;28;20421;-87
2022/06/19 09:45:47;;;;;;;16.00;4.53;;;34.40;60.90;;;;;;5054698;28;20413;-90
2022/06/19 09:48:54;;;;;;;19.00;5.60;;;34.50;60.90;;;;;;5052059;28;20856;-87
2022/06/19 09:51:38;;;;;;;23.13;4.33;;;34.60;60.90;;;;;;5033550;28;20424;-88
2022/06/19 09:54:16;;;;;;;18.23;4.93;;;34.70;60.10;;;;;;5040455;28;20461;-86
2022/06/19 09:57:09;;;;;;;14.87;3.97;;;34.80;61.00;;;;;;5052344;28;20441;-86
2022/06/19 09:59:45;;;;;;;12.67;3.90;;;34.80;60.60;;;;;;5042024;28;20506;-87
2022/06/19 10:02:21;;;;;;;12.20;3.77;;;34.80;61.50;;;;;;5070891;28;20913;-86
2022/06/19 10:05:18;;;;;;;19.25;3.60;;;35.00;61.30;;;;;;5041106;28;20420;-86
2022/06/19 10:07:51;;;;;;;16.00;4.37;;;35.10;61.20;;;;;;5037656;28;20576;-86
2022/06/19 10:10:23;;;;;;;12.70;3.43;;;35.20;59.80;;;;;;5042772;28;20413;-87
2022/06/19 10:12:51;;;;;;;22.30;4.70;;;35.20;59.50;;;;;;5049607;28;20940;-86
2022/06/19 10:15:23;;;;;;;17.50;4.00;;;35.30;59.80;;;;;;5045752;28;20896;-88
2022/06/19 10:17:54;;;;;;;20.40;5.00;;;35.40;59.50;;;;;;5050558;28;20497;-85
2022/06/19 10:20:33;;;;;;;15.00;4.87;;;35.40;59.50;;;;;;5041432;28;20488;-86
2022/06/19 10:23:11;;;;;;;13.17;3.77;;;35.40;59.80;;;;;;5035493;28;20425;-86
2022/06/19 10:26:18;;;;;;;13.20;4.20;;;35.50;59.20;;;;;;5048177;28;20419;-86
2022/06/19 10:29:12;;;;;;;22.33;4.30;;;35.60;59.00;;;;;;5048715;28;20502;-86
2022/06/19 10:32:15;;;;;;;14.43;3.80;;;35.70;58.40;;;;;;5049176;28;20410;-86
2022/06/19 10:34:52;;;;;;;14.60;3.90;;;35.70;58.30;;;;;;5046695;28;20413;-88
2022/06/19 10:37:41;;;;;;;27.87;5.20;;;35.80;58.50;;;;;;5068897;28;20491;-88
2022/06/19 10:40:21;;;;;;;13.77;4.50;;;36.00;58.60;;;;;;5063155;28;20447;-86
2022/06/19 10:43:17;;;;;;;21.90;5.77;;;36.10;58.20;;;;;;5033487;28;20836;-89
2022/06/19 10:45:48;;;;;;;21.90;5.00;;;36.20;57.90;;;;;;5051103;28;20500;-85
2022/06/19 10:48:33;;;;;;;12.80;3.60;;;36.20;57.60;;;;;;5042388;28;20556;-88
2022/06/19 10:51:17;;;;;;;16.63;3.53;;;36.30;58.40;;;;;;5034094;28;20513;-87
2022/06/19 10:54:14;;;;;;;20.40;4.93;;;36.40;58.20;;;;;;5037086;28;20810;-86
2022/06/19 10:56:58;;;;;;;18.33;4.43;;;36.40;59.10;;;;;;5053951;28;20469;-86
2022/06/19 10:59:25;;;;;;;20.53;5.10;;;36.50;58.60;;;;;;5033950;28;20472;-87
2022/06/19 11:05:12;;;;;;;15.97;4.77;;;36.60;59.10;;;;;;5070419;28;20507;-86
2022/06/19 11:07:39;;;;;;;10.87;4.67;;;36.80;59.50;;;;;;5024728;28;20465;-88
2022/06/19 11:10:36;;;;;;;16.10;4.13;;;36.80;59.40;;;;;;5045370;28;20441;-86
2022/06/19 11:13:03;;;;;;;13.27;3.93;;;36.90;57.80;;;;;;5044244;28;20418;-86
2022/06/19 11:15:44;;;;;;;11.93;4.33;;;36.80;58.90;;;;;;5051978;28;20922;-87
2022/06/19 11:18:17;;;;;;;12.07;4.40;;;36.90;59.00;;;;;;5054934;28;20433;-85
2022/06/19 11:21:05;;;;;;;12.40;5.07;;;37.00;58.50;;;;;;5055260;28;20801;-85
2022/06/19 11:23:56;;;;;;;19.50;4.40;;;37.10;58.20;;;;;;5042525;28;20396;-88
2022/06/19 11:26:45;;;;;;;12.03;4.30;;;37.10;58.20;;;;;;5042079;28;20803;-86
2022/06/19 11:29:14;;;;;;;15.67;4.40;;;37.10;57.40;;;;;;5035672;28;20455;-88
2022/06/19 11:32:01;;;;;;;12.03;4.80;;;37.20;57.40;;;;;;5055284;28;20451;-87
2022/06/19 11:37:32;;;;;;;10.70;3.83;;;37.10;58.00;;;;;;5060014;28;20441;-87
2022/06/19 11:39:58;;;;;;;16.83;5.10;;;37.10;58.00;;;;;;5046480;28;20413;-86
2022/06/19 11:42:29;;;;;;;17.73;5.20;;;37.10;57.80;;;;;;5042187;28;20405;-88
2022/06/19 11:45:19;;;;;;;12.70;4.80;;;37.10;58.10;;;;;;5044540;28;20180;-88
2022/06/19 11:47:58;;;;;;;12.17;4.37;;;37.20;58.70;;;;;;5043716;28;20456;-86
2022/06/19 11:50:50;;;;;;;11.33;4.50;;;37.20;58.70;;;;;;5052503;28;20954;-88
2022/06/19 11:53:24;;;;;;;12.70;4.30;;;37.30;58.70;;;;;;5040726;28;20483;-87
2022/06/19 11:56:25;;;;;;;8.47;4.57;;;37.40;58.60;;;;;;5043787;28;20452;-86
2022/06/19 11:58:58;;;;;;;10.73;4.50;;;37.40;58.70;;;;;;5072715;28;20425;-87
2022/06/19 12:01:42;;;;;;;16.83;5.10;;;37.50;58.40;;;;;;5054853;28;20440;-85
2022/06/19 12:04:20;;;;;;;10.10;4.23;;;37.60;59.00;;;;;;5044638;28;20989;-86
2022/06/19 12:06:50;;;;;;;12.17;4.97;;;37.60;59.50;;;;;;5037474;28;20438;-87
2022/06/19 12:09:24;;;;;;;14.23;4.40;;;37.50;59.20;;;;;;5046299;28;21043;-87
2022/06/19 12:12:19;;;;;;;13.60;4.03;;;37.50;59.00;;;;;;5041510;28;20445;-85
2022/06/19 12:14:54;;;;;;;11.53;4.40;;;37.60;59.60;;;;;;5058278;28;20444;-86
2022/06/19 12:17:30;;;;;;;14.20;4.60;;;37.70;58.80;;;;;;5054473;28;20433;-86
2022/06/19 12:20:20;;;;;;;10.43;4.47;;;37.70;59.20;;;;;;5065710;28;20493;-86
2022/06/19 12:23:08;;;;;;;11.73;4.50;;;37.80;59.30;;;;;;5052190;28;20418;-85
2022/06/19 12:25:49;;;;;;;12.00;4.90;;;37.90;59.50;;;;;;5054310;28;20516;-86
2022/06/19 12:28:40;;;;;;;10.37;5.00;;;38.00;58.90;;;;;;5041975;28;20452;-86
2022/06/19 12:31:08;;;;;;;10.83;5.63;;;38.00;58.70;;;;;;5036959;28;20544;-87
2022/06/19 12:33:46;;;;;;;11.87;4.63;;;37.90;58.70;;;;;;5046489;28;20424;-87
2022/06/19 12:36:17;;;;;;;9.13;5.37;;;37.90;59.10;;;;;;5047890;28;20414;-88
2022/06/19 12:38:43;;;;;;;15.63;5.30;;;37.80;59.20;;;;;;5034718;28;21029;-87
2022/06/19 12:41:40;;;;;;;11.30;4.97;;;37.80;59.70;;;;;;5054755;28;20422;-84
2022/06/19 12:44:27;;;;;;;13.23;5.00;;;37.90;58.80;;;;;;5054521;28;20179;-86
2022/06/19 12:47:24;;;;;;;18.97;5.20;;;37.90;59.10;;;;;;5054477;28;20542;-87
2022/06/19 12:50:08;;;;;;;13.73;5.00;;;37.90;59.00;;;;;;5041465;28;20437;-87
2022/06/19 12:52:52;;;;;;;11.03;4.70;;;37.80;59.60;;;;;;5043408;28;20445;-88
2022/06/19 12:55:45;;;;;;;10.70;4.83;;;37.70;60.50;;;;;;5054519;28;20747;-86
2022/06/19 12:58:38;;;;;;;14.10;4.87;;;37.60;60.90;;;;;;5054464;28;20707;-88
2022/06/19 13:01:32;;;;;;;16.43;4.63;;;37.40;60.40;;;;;;5042687;28;20419;-88
2022/06/19 13:04:03;;;;;;;11.13;5.00;;;37.20;60.70;;;;;;5032671;28;20417;-87
2022/06/19 13:06:43;;;;;;;13.07;4.70;;;37.20;61.60;;;;;;5050087;28;20934;-89
2022/06/19 13:09:23;;;;;;;11.63;4.70;;;37.00;61.80;;;;;;5034483;28;20504;-88
2022/06/19 13:11:59;;;;;;;8.87;4.80;;;36.80;62.30;;;;;;5051926;28;20418;-87
2022/06/19 13:14:39;;;;;;;14.77;5.00;;;36.50;63.80;;;;;;5047731;28;20933;-86
2022/06/19 13:17:19;;;;;;;10.50;4.93;;;36.30;64.20;;;;;;5052463;28;20692;-86
2022/06/19 13:19:55;;;;;;;12.83;4.60;;;36.10;65.40;;;;;;5034173;28;20411;-87
2022/06/19 13:22:59;;;;;;;13.80;5.27;;;36.00;66.00;;;;;;5065694;28;20412;-86
2022/06/19 13:25:34;;;;;;;9.70;5.43;;;36.00;66.30;;;;;;5041426;28;20414;-88
2022/06/19 13:28:25;;;;;;;10.13;4.50;;;36.00;66.30;;;;;;5034260;28;20454;-87
2022/06/19 13:31:07;;;;;;;10.97;5.20;;;36.00;66.20;;;;;;5050871;28;20458;-86
2022/06/19 13:33:45;;;;;;;12.10;4.60;;;36.00;66.90;;;;;;5042202;28;20409;-87
2022/06/19 13:36:36;;;;;;;12.10;5.00;;;36.00;67.60;;;;;;5054059;28;20419;-88
2022/06/19 13:39:27;;;;;;;10.30;5.20;;;35.90;67.40;;;;;;5052843;28;20421;-87
2022/06/19 13:42:10;;;;;;;22.03;5.13;;;35.80;68.00;;;;;;5053181;28;20433;-87
2022/06/19 13:45:15;;;;;;;13.57;5.47;;;35.70;68.10;;;;;;5045699;28;20509;-88
2022/06/19 13:47:51;;;;;;;12.20;4.90;;;35.70;67.50;;;;;;5041673;28;20469;-88